Time;durP1;ratioP1;P1;durP2;ratioP2;P2;SDS_P1;SDS_P2;PMS_P1;PMS_P2;Temp;Humidity;BMP_temperature;BMP_pressure;BME280_temperature;BME280_humidity;BME280_pressure;Samples;Min_cycle;Max_cycle;Signal;HPM_P1;HPM_P2
2023/10/17 00:02:11;;;;;;;3.78;2.20;;;12.40;64.60;14.30;101929.00;;;;5011004;28;20204;-75
2023/10/17 00:04:41;;;;;;;2.83;1.80;;;12.40;64.60;14.20;101934.00;;;;5009845;28;20318;-75
2023/10/17 00:07:08;;;;;;;3.22;2.00;;;12.40;64.50;14.30;101939.00;;;;5008804;28;20212;-75
2023/10/17 00:09:37;;;;;;;2.53;1.60;;;12.40;65.00;14.30;101936.00;;;;5015986;28;20224;-74
2023/10/17 00:12:14;;;;;;;3.42;1.83;;;12.40;64.40;14.30;101938.00;;;;5028201;28;20200;-74
2023/10/17 00:14:46;;;;;;;1.83;1.63;;;12.40;64.40;14.30;101938.00;;;;5010372;28;20204;-74
2023/10/17 00:17:15;;;;;;;2.70;1.63;;;12.40;64.40;14.30;101941.00;;;;5014149;28;20614;-74
2023/10/17 00:19:44;;;;;;;2.80;1.45;;;12.40;64.40;14.30;101939.00;;;;5019701;28;20235;-74
2023/10/17 00:22:17;;;;;;;2.72;1.42;;;12.40;64.40;14.30;101940.00;;;;5009937;28;20192;-75
2023/10/17 00:24:46;;;;;;;4.55;1.60;;;12.40;64.30;14.30;101934.00;;;;5016109;28;20701;-75
2023/10/17 00:27:13;;;;;;;2.55;1.70;;;12.40;64.30;14.30;101932.00;;;;5009547;28;20562;-75
2023/10/17 00:29:42;;;;;;;4.05;1.92;;;12.40;64.30;14.30;101929.00;;;;5009982;28;20197;-74
2023/10/17 00:32:09;;;;;;;2.63;1.48;;;12.40;64.30;14.30;101921.00;;;;5012807;28;20204;-75
2023/10/17 00:34:37;;;;;;;2.85;1.60;;;12.40;64.30;14.30;101924.00;;;;5022363;28;20189;-75
2023/10/17 00:37:10;;;;;;;1.98;1.38;;;12.40;64.30;14.30;101919.00;;;;5026499;28;20200;-75
2023/10/17 00:39:38;;;;;;;2.15;1.42;;;12.40;64.30;14.30;101914.00;;;;5008914;28;20678;-75
2023/10/17 00:44:52;;;;;;;4.00;1.58;;;12.40;64.30;14.30;101903.00;;;;5010698;28;20275;-75
2023/10/17 00:47:19;;;;;;;2.25;1.75;;;12.40;64.20;14.30;101906.00;;;;5010606;28;20207;-75
2023/10/17 00:49:47;;;;;;;2.63;1.48;;;12.40;64.20;14.30;101907.00;;;;5009139;28;20606;-75
2023/10/17 00:52:25;;;;;;;1.75;1.58;;;12.40;64.20;14.20;101906.00;;;;5014104;28;20724;-75
2023/10/17 00:54:54;;;;;;;2.90;1.42;;;12.40;64.10;14.30;101907.00;;;;5025283;28;20326;-75
2023/10/17 00:57:26;;;;;;;2.20;1.42;;;12.40;64.10;14.30;101898.00;;;;5016977;28;20703;-75
2023/10/17 00:59:55;;;;;;;3.30;1.88;;;12.40;64.10;14.30;101893.00;;;;5009512;28;20219;-75
2023/10/17 01:02:24;;;;;;;2.28;1.20;;;12.40;64.10;14.30;101896.00;;;;5008632;28;20391;-75
2023/10/17 01:04:51;;;;;;;2.00;1.13;;;12.40;64.10;14.30;101898.00;;;;5023499;28;20232;-75
2023/10/17 01:07:26;;;;;;;3.53;2.08;;;12.40;64.10;14.30;101899.00;;;;5012704;28;20248;-75
2023/10/17 01:10:00;;;;;;;4.03;1.80;;;12.40;64.10;14.30;101892.00;;;;5023815;28;20606;-75
2023/10/17 01:12:28;;;;;;;2.78;1.45;;;12.40;64.10;14.30;101891.00;;;;5016066;28;20243;-75
2023/10/17 01:14:56;;;;;;;2.03;1.35;;;12.40;64.10;14.30;101893.00;;;;5021926;28;20212;-75
2023/10/17 01:17:24;;;;;;;3.22;1.67;;;12.40;64.10;14.30;101888.00;;;;5010843;28;20209;-75
2023/10/17 01:19:57;;;;;;;2.72;2.13;;;12.50;64.10;14.30;101888.00;;;;5017944;28;20203;-75
2023/10/17 01:22:25;;;;;;;2.88;1.67;;;12.50;64.10;14.30;101893.00;;;;5011421;28;20258;-75
2023/10/17 01:24:56;;;;;;;4.78;1.88;;;12.50;64.10;14.30;101893.00;;;;5008794;28;20228;-75
2023/10/17 01:27:24;;;;;;;3.28;1.98;;;12.50;64.10;14.30;101891.00;;;;5008015;28;20304;-75
2023/10/17 01:29:51;;;;;;;2.83;1.80;;;12.50;64.00;14.30;101894.00;;;;5012571;28;20216;-75
2023/10/17 01:32:21;;;;;;;4.93;1.98;;;12.50;64.00;14.30;101889.00;;;;5018004;28;20200;-75
2023/10/17 01:34:48;;;;;;;5.80;1.95;;;12.50;64.00;14.30;101881.00;;;;5021683;28;20292;-75
2023/10/17 01:37:16;;;;;;;3.22;1.83;;;12.50;64.10;14.30;101883.00;;;;5018288;28;20204;-75
2023/10/17 01:39:43;;;;;;;3.75;1.65;;;12.50;64.10;14.30;101883.00;;;;5019692;28;20196;-75
2023/10/17 01:42:12;;;;;;;3.25;1.80;;;12.50;64.10;14.30;101884.00;;;;5017287;28;20248;-75
2023/10/17 01:44:39;;;;;;;2.05;1.52;;;12.50;64.10;14.30;101890.00;;;;5011815;28;20693;-75
2023/10/17 01:47:08;;;;;;;3.17;1.67;;;12.50;64.00;14.30;101886.00;;;;5016668;28;20196;-75
2023/10/17 01:49:36;;;;;;;3.35;2.03;;;12.50;64.00;14.30;101882.00;;;;5009976;28;20200;-75
2023/10/17 01:52:06;;;;;;;4.75;1.65;;;12.50;64.00;14.30;101879.00;;;;5019864;28;20201;-75
2023/10/17 01:54:33;;;;;;;2.45;1.58;;;12.50;64.10;14.30;101874.00;;;;5007568;28;20209;-75
2023/10/17 01:57:06;;;;;;;2.75;1.70;;;12.50;64.00;14.30;101860.00;;;;5015334;28;20728;-75
2023/10/17 01:59:36;;;;;;;2.75;1.92;;;12.50;64.00;14.30;101861.00;;;;5011932;28;20237;-75
2023/10/17 02:02:03;;;;;;;3.42;1.73;;;12.50;64.10;14.30;101859.00;;;;5019532;28;20291;-75
2023/10/17 02:04:34;;;;;;;4.35;2.38;;;12.50;64.10;14.30;101863.00;;;;5008407;28;20736;-75
2023/10/17 02:07:02;;;;;;;2.70;1.88;;;12.50;64.00;14.30;101854.00;;;;5013771;28;20208;-75
2023/10/17 02:12:13;;;;;;;4.00;2.10;;;12.40;63.90;14.30;101852.00;;;;5006761;28;20224;-75
2023/10/17 02:14:42;;;;;;;3.22;2.10;;;12.40;63.90;14.30;101857.00;;;;5014815;28;20251;-75
2023/10/17 02:17:09;;;;;;;3.17;2.10;;;12.40;63.90;14.30;101854.00;;;;5022656;28;20291;-75
2023/10/17 02:19:38;;;;;;;2.97;1.67;;;12.40;64.00;14.30;101849.00;;;;5016267;28;20209;-75
2023/10/17 02:22:09;;;;;;;4.75;2.25;;;12.50;64.00;14.30;101846.00;;;;5013790;28;20280;-75
2023/10/17 02:24:37;;;;;;;2.58;2.00;;;12.40;63.90;14.30;101844.00;;;;5016097;28;20227;-75
2023/10/17 02:27:13;;;;;;;2.78;1.67;;;12.40;64.00;14.30;101848.00;;;;5018561;28;20207;-75
2023/10/17 02:29:46;;;;;;;4.35;2.10;;;12.40;64.00;14.30;101849.00;;;;5012486;28;20200;-75
2023/10/17 02:32:13;;;;;;;2.42;1.80;;;12.40;64.00;14.20;101847.00;;;;5024027;28;20666;-75
2023/10/17 02:34:43;;;;;;;2.53;1.83;;;12.40;64.00;14.20;101840.00;;;;5017644;28;20199;-75
2023/10/17 02:37:11;;;;;;;4.25;1.90;;;12.40;64.00;14.20;101844.00;;;;5021927;28;20276;-75
2023/10/17 02:39:39;;;;;;;3.55;2.20;;;12.40;64.00;14.20;101848.00;;;;5018308;28;20663;-75
2023/10/17 02:42:09;;;;;;;2.70;2.08;;;12.40;64.00;14.20;101845.00;;;;5018892;28;20199;-75
2023/10/17 02:44:39;;;;;;;2.97;2.03;;;12.40;64.00;14.20;101844.00;;;;5022646;28;20717;-75
2023/10/17 02:47:11;;;;;;;4.78;2.00;;;12.30;64.00;14.20;101839.00;;;;5017641;28;20209;-76
2023/10/17 02:49:38;;;;;;;3.22;1.80;;;12.30;64.00;14.20;101833.00;;;;5019480;28;20279;-76
2023/10/17 02:52:06;;;;;;;2.42;1.80;;;12.30;64.00;14.20;101830.00;;;;5016082;28;20704;-77
2023/10/17 02:54:54;;;;;;;2.65;1.73;;;12.30;64.10;14.20;101836.00;;;;5025806;28;20196;-76
2023/10/17 02:57:21;;;;;;;3.95;2.00;;;12.30;64.10;14.20;101834.00;;;;5018502;28;20280;-77
2023/10/17 02:59:51;;;;;;;2.15;1.90;;;12.30;64.00;14.20;101836.00;;;;5014270;28;20596;-77
2023/10/17 03:02:24;;;;;;;4.35;1.75;;;12.30;63.90;14.10;101840.00;;;;5018682;28;20352;-76
2023/10/17 03:04:51;;;;;;;3.35;2.05;;;12.30;64.00;14.10;101841.00;;;;5018555;28;20251;-76
2023/10/17 03:07:21;;;;;;;4.93;2.40;;;12.30;64.00;14.10;101841.00;;;;5031183;28;20208;-76
2023/10/17 03:09:48;;;;;;;2.75;1.88;;;12.30;64.00;14.10;101843.00;;;;5027882;28;20243;-76
2023/10/17 03:12:22;;;;;;;2.80;1.95;;;12.30;63.90;14.10;101830.00;;;;5021689;28;20500;-76
2023/10/17 03:17:35;;;;;;;2.90;2.15;;;12.30;63.90;14.00;101831.00;;;;5029531;28;20270;-77
2023/10/17 03:20:01;;;;;;;2.35;1.85;;;12.20;63.90;14.00;101835.00;;;;5029326;28;20196;-76
2023/10/17 03:22:28;;;;;;;3.15;1.58;;;12.20;63.80;14.00;101826.00;;;;5031259;28;20311;-76
2023/10/17 03:25:01;;;;;;;2.95;2.05;;;12.20;63.90;14.00;101832.00;;;;5030312;28;20235;-76
2023/10/17 03:27:36;;;;;;;4.43;2.00;;;12.20;64.00;14.00;101834.00;;;;5022457;28;20201;-76
2023/10/17 03:30:06;;;;;;;3.15;1.73;;;12.20;64.10;14.00;101825.00;;;;5013530;28;20204;-76
2023/10/17 03:32:43;;;;;;;3.53;2.08;;;12.20;64.00;14.00;101839.00;;;;5017421;28;20213;-76
2023/10/17 03:35:20;;;;;;;2.50;1.80;;;12.20;64.10;14.00;101838.00;;;;5029371;28;20208;-76
2023/10/17 03:37:46;;;;;;;3.55;2.42;;;12.20;64.10;14.00;101840.00;;;;5027413;28;20201;-76
2023/10/17 03:40:16;;;;;;;2.55;2.05;;;12.10;64.10;14.00;101836.00;;;;5016105;28;20216;-76
2023/10/17 03:42:46;;;;;;;2.80;2.08;;;12.20;64.10;14.00;101844.00;;;;5015119;28;20223;-76
2023/10/17 03:45:23;;;;;;;5.30;2.20;;;12.20;64.30;14.00;101847.00;;;;5024665;28;20254;-76
2023/10/17 03:47:57;;;;;;;2.10;1.83;;;12.20;64.30;14.00;101846.00;;;;5014170;28;20212;-76
2023/10/17 03:50:36;;;;;;;3.60;1.80;;;12.20;64.40;14.00;101857.00;;;;5016735;28;20203;-77
2023/10/17 03:53:07;;;;;;;3.28;1.85;;;12.20;64.30;14.00;101855.00;;;;5011313;28;20215;-76
2023/10/17 03:55:36;;;;;;;5.07;2.05;;;12.20;64.50;14.00;101858.00;;;;5010335;28;20205;-76
2023/10/17 03:58:08;;;;;;;3.58;2.10;;;12.20;64.50;14.00;101852.00;;;;5010628;28;20197;-76
2023/10/17 04:00:41;;;;;;;2.28;1.67;;;12.20;64.40;14.00;101854.00;;;;5011172;28;20204;-77
2023/10/17 04:03:18;;;;;;;3.03;1.88;;;12.20;64.40;14.00;101861.00;;;;5010767;28;20199;-76
2023/10/17 04:05:49;;;;;;;3.65;1.73;;;12.20;64.40;14.00;101856.00;;;;5010672;28;20242;-77
2023/10/17 04:08:18;;;;;;;2.25;1.83;;;12.20;64.40;14.00;101865.00;;;;5010736;28;20741;-74
2023/10/17 04:10:49;;;;;;;2.70;1.80;;;12.20;64.40;14.10;101874.00;;;;5018479;28;20216;-74
2023/10/17 04:13:23;;;;;;;4.82;1.95;;;12.20;64.40;14.10;101870.00;;;;5028976;28;20724;-76
2023/10/17 04:15:51;;;;;;;3.75;2.10;;;12.20;64.40;14.10;101873.00;;;;5021289;28;20208;-75
2023/10/17 04:18:22;;;;;;;3.35;2.13;;;12.20;64.40;14.10;101870.00;;;;5011253;28;20674;-75
2023/10/17 04:20:58;;;;;;;4.57;2.47;;;12.20;64.30;14.10;101881.00;;;;5018288;28;20192;-76
2023/10/17 04:23:27;;;;;;;3.50;2.05;;;12.20;64.30;14.10;101875.00;;;;5009958;28;20215;-75
2023/10/17 04:25:56;;;;;;;2.05;1.55;;;12.20;64.40;14.10;101880.00;;;;5009002;28;20351;-75
2023/10/17 04:28:26;;;;;;;3.20;2.05;;;12.30;64.40;14.10;101888.00;;;;5014154;28;20196;-75
2023/10/17 04:30:59;;;;;;;2.60;1.83;;;12.30;64.40;14.10;101878.00;;;;5021587;28;20204;-75
2023/10/17 04:33:29;;;;;;;3.20;2.10;;;12.30;64.40;14.10;101873.00;;;;5024899;28;20200;-75
2023/10/17 04:35:59;;;;;;;3.05;2.03;;;12.30;64.50;14.10;101856.00;;;;5011887;28;20224;-75
2023/10/17 04:38:36;;;;;;;2.78;2.08;;;12.30;64.40;14.10;101862.00;;;;5023452;28;20193;-75
2023/10/17 04:41:25;;;;;;;4.47;2.13;;;12.30;64.40;14.10;101874.00;;;;5016145;28;20566;-75
2023/10/17 04:43:54;;;;;;;3.25;1.60;;;12.30;64.40;14.10;101870.00;;;;5010636;28;20189;-75
2023/10/17 04:46:26;;;;;;;2.67;1.60;;;12.30;64.30;14.10;101863.00;;;;5015029;28;20304;-76
2023/10/17 04:48:57;;;;;;;2.83;1.55;;;12.30;64.40;14.10;101861.00;;;;5023898;28;20532;-75
2023/10/17 04:51:31;;;;;;;3.17;1.70;;;12.30;64.40;14.10;101872.00;;;;5014203;28;20201;-75
2023/10/17 04:54:08;;;;;;;2.22;1.73;;;12.30;64.40;14.10;101865.00;;;;5008992;28;20236;-76
2023/10/17 04:56:52;;;;;;;2.10;1.70;;;12.30;64.40;14.10;101869.00;;;;5013002;28;20204;-76
2023/10/17 04:59:28;;;;;;;2.33;1.77;;;12.30;64.40;14.10;101869.00;;;;5018794;28;20197;-75
2023/10/17 05:02:14;;;;;;;3.70;2.20;;;12.30;64.40;14.10;101869.00;;;;5024231;28;20208;-76
2023/10/17 05:05:39;;;;;;;3.00;2.00;;;12.30;64.40;14.10;101877.00;;;;5028180;28;20309;-75
2023/10/17 05:08:03;;;;;;;2.40;1.90;;;12.30;64.40;14.10;101874.00;;;;5024258;28;20211;-75
2023/10/17 06:16:52;;;;;;;4.10;2.88;;;11.80;64.50;13.50;101828.00;;;;4999548;28;20208;-76
2023/10/17 06:19:24;;;;;;;5.53;3.10;;;11.70;64.40;13.60;101839.00;;;;5022469;28;20185;-76
2023/10/17 06:33:03;;;;;;;3.72;2.53;;;11.70;64.50;13.50;101833.00;;;;5019219;28;20673;-76
2023/10/17 06:35:31;;;;;;;4.55;3.22;;;11.70;64.50;13.50;101835.00;;;;5019886;28;20266;-76
2023/10/17 06:38:00;;;;;;;4.22;3.15;;;11.60;64.50;13.50;101839.00;;;;5018350;28;20765;-76
2023/10/17 06:40:32;;;;;;;6.47;3.40;;;11.60;64.50;13.40;101837.00;;;;5016223;28;20213;-76
2023/10/17 06:43:06;;;;;;;4.88;3.40;;;11.60;64.60;13.40;101839.00;;;;5020146;28;20266;-76
2023/10/17 06:45:37;;;;;;;4.30;3.13;;;11.60;64.60;13.40;101842.00;;;;5017695;28;20757;-76
2023/10/17 06:48:08;;;;;;;3.97;3.05;;;11.60;64.70;13.40;101839.00;;;;5017557;28;20272;-76
2023/10/17 06:53:18;;;;;;;4.82;3.33;;;11.50;64.80;13.40;101853.00;;;;5022071;28;20643;-76
2023/10/17 06:55:47;;;;;;;7.65;3.95;;;11.60;64.90;13.40;101862.00;;;;5020246;28;20193;-76
2023/10/17 06:58:21;;;;;;;4.97;3.72;;;11.60;64.90;13.40;101859.00;;;;5016627;28;20294;-76
2023/10/17 07:00:51;;;;;;;5.63;4.22;;;11.60;65.00;13.40;101858.00;;;;5019802;28;20200;-76
2023/10/17 07:03:25;;;;;;;5.20;4.03;;;11.50;65.00;13.40;101852.00;;;;5019980;28;20208;-75
2023/10/17 07:05:55;;;;;;;6.95;4.35;;;11.60;65.10;13.40;101857.00;;;;5014768;28;20295;-76
2023/10/17 07:08:22;;;;;;;4.35;3.38;;;11.60;65.20;13.50;101858.00;;;;5011869;28;20571;-76
2023/10/17 07:11:02;;;;;;;5.78;4.00;;;11.60;65.20;13.50;101860.00;;;;5017075;28;20227;-76
2023/10/17 07:14:21;;;;;;;6.90;4.88;;;11.60;65.30;13.40;101858.00;;;;5009115;28;20205;-76
2023/10/17 07:19:48;;;;;;;4.97;3.50;;;11.60;65.50;13.60;101852.00;;;;5014490;28;20290;-75
2023/10/17 07:22:15;;;;;;;5.35;3.97;;;11.70;65.50;13.60;101862.00;;;;5017524;28;20203;-75
2023/10/17 07:24:48;;;;;;;7.00;4.13;;;11.70;65.50;13.70;101857.00;;;;5013307;28;20275;-75
2023/10/17 07:27:33;;;;;;;9.40;4.40;;;11.80;65.70;13.70;101856.00;;;;5018449;28;20197;-75
2023/10/17 07:30:10;;;;;;;5.57;4.15;;;11.80;65.70;13.70;101857.00;;;;5025446;28;20605;-76
2023/10/17 07:32:45;;;;;;;7.60;4.60;;;11.80;65.60;13.80;101856.00;;;;5018757;28;20257;-76
2023/10/17 07:35:16;;;;;;;6.88;4.78;;;11.90;65.70;13.90;101852.00;;;;5011024;28;20200;-76
2023/10/17 07:37:54;;;;;;;6.68;4.80;;;11.90;65.70;13.90;101845.00;;;;5022236;28;20605;-76
2023/10/17 07:40:31;;;;;;;5.93;4.35;;;12.00;65.80;13.90;101860.00;;;;5013726;28;20628;-76
2023/10/17 07:43:01;;;;;;;6.07;4.40;;;12.00;65.80;14.00;101854.00;;;;5014391;28;20277;-76
2023/10/17 07:45:38;;;;;;;10.70;4.40;;;12.00;65.80;14.10;101854.00;;;;5018681;28;20213;-76
2023/10/17 07:48:19;;;;;;;5.47;3.97;;;12.10;65.90;14.10;101857.00;;;;5014167;28;20208;-75
2023/10/17 07:50:50;;;;;;;5.68;3.97;;;12.20;65.90;14.20;101862.00;;;;5015720;28;20251;-76
2023/10/17 07:53:20;;;;;;;7.00;4.22;;;12.20;65.90;14.30;101861.00;;;;5021465;28;20192;-76
2023/10/17 07:55:49;;;;;;;7.03;4.55;;;12.30;66.00;14.30;101858.00;;;;5011102;28;20209;-76
2023/10/17 07:58:35;;;;;;;6.40;3.90;;;12.40;66.00;14.40;101851.00;;;;5011260;28;20609;-75
2023/10/17 08:01:07;;;;;;;7.25;4.88;;;12.40;66.00;14.40;101854.00;;;;5020056;28;20200;-76
2023/10/17 08:03:40;;;;;;;6.00;4.60;;;12.50;65.90;14.50;101857.00;;;;5025565;28;20692;-76
2023/10/17 08:06:08;;;;;;;6.05;4.80;;;12.50;65.90;14.60;101844.00;;;;5021479;28;20673;-75
2023/10/17 08:08:42;;;;;;;8.95;5.43;;;12.60;65.90;14.60;101845.00;;;;5010135;28;20581;-76
2023/10/17 08:11:25;;;;;;;6.65;4.85;;;12.60;65.90;14.60;101842.00;;;;5010184;28;20225;-76
2023/10/17 08:13:52;;;;;;;8.20;5.30;;;12.70;65.80;14.70;101836.00;;;;5018550;28;20240;-76
2023/10/17 08:16:26;;;;;;;7.32;4.35;;;12.80;65.90;14.70;101839.00;;;;5012219;28;20693;-75
2023/10/17 08:18:58;;;;;;;5.00;4.05;;;12.80;65.80;14.80;101831.00;;;;5016717;28;20255;-76
2023/10/17 08:21:35;;;;;;;6.60;4.03;;;12.90;65.80;14.90;101846.00;;;;5017975;28;20201;-76
2023/10/17 08:24:05;;;;;;;7.50;4.75;;;12.90;65.80;14.90;101849.00;;;;5023329;28;20196;-76
2023/10/17 08:26:40;;;;;;;7.25;5.13;;;13.00;65.80;14.90;101839.00;;;;5017742;28;20227;-76
2023/10/17 08:29:08;;;;;;;4.60;3.72;;;13.10;65.80;15.00;101837.00;;;;5017652;28;20208;-76
2023/10/17 08:31:43;;;;;;;6.25;4.20;;;13.10;66.50;15.10;101830.00;;;;5023410;28;20199;-76
2023/10/17 08:34:12;;;;;;;5.20;3.80;;;13.20;65.90;15.10;101834.00;;;;5014382;28;20251;-75
2023/10/17 08:36:45;;;;;;;6.07;4.13;;;13.30;65.90;15.20;101832.00;;;;5016959;28;20198;-76
2023/10/17 08:39:51;;;;;;;6.70;4.40;;;13.30;65.80;15.30;101843.00;;;;5009563;28;20574;-76
2023/10/17 08:42:30;;;;;;;5.45;3.55;;;13.40;65.70;15.40;101842.00;;;;5011441;28;20283;-76
2023/10/17 08:44:58;;;;;;;8.73;3.80;;;13.50;65.70;15.40;101844.00;;;;5015804;28;20215;-76
2023/10/17 08:47:30;;;;;;;4.78;3.70;;;13.50;65.60;15.50;101842.00;;;;5010678;28;20255;-76
2023/10/17 08:50:03;;;;;;;6.75;3.58;;;13.60;65.50;15.50;101845.00;;;;5017989;28;20212;-76
2023/10/17 08:52:35;;;;;;;5.60;4.15;;;13.70;65.50;15.60;101849.00;;;;5009194;28;20193;-76
2023/10/17 08:55:03;;;;;;;5.38;3.40;;;13.70;65.30;15.60;101842.00;;;;5014869;28;20812;-76
2023/10/17 08:57:31;;;;;;;4.45;3.67;;;13.80;65.30;15.70;101846.00;;;;5014153;28;20599;-76
2023/10/17 09:02:56;;;;;;;8.98;4.90;;;13.90;65.20;15.70;101844.00;;;;5014963;28;20203;-78
2023/10/17 09:05:27;;;;;;;10.40;4.05;;;14.00;65.10;15.90;101849.00;;;;5017242;28;20221;-78
2023/10/17 09:07:56;;;;;;;4.95;3.97;;;14.00;65.00;15.90;101854.00;;;;5014223;28;20292;-78
2023/10/17 09:10:36;;;;;;;5.82;3.72;;;14.10;65.00;16.00;101860.00;;;;5012887;28;20228;-77
2023/10/17 09:13:52;;;;;;;7.75;4.47;;;14.20;65.00;16.10;101870.00;;;;5014495;28;20247;-78
2023/10/17 09:16:10;;;;;;;5.28;3.80;;;14.20;64.90;16.10;101869.00;;;;5012920;28;20280;-78
2023/10/17 09:18:54;;;;;;;9.35;3.78;;;14.30;64.90;16.20;101870.00;;;;5080087;28;20625;-78
2023/10/17 09:21:21;;;;;;;7.80;3.15;;;14.40;65.10;16.30;101870.00;;;;5048140;28;20204;-79
2023/10/17 09:23:48;;;;;;;5.28;3.83;;;14.50;65.10;16.40;101872.00;;;;5046354;28;20495;-78
2023/10/17 09:26:19;;;;;;;6.43;4.03;;;14.60;65.10;16.50;101857.00;;;;5048966;28;20656;-77
2023/10/17 09:28:48;;;;;;;4.10;3.03;;;14.70;65.00;16.60;101872.00;;;;5050493;28;20231;-77
2023/10/17 09:31:16;;;;;;;5.72;3.78;;;14.80;65.00;16.70;101872.00;;;;5054506;28;20225;-79
2023/10/17 09:33:44;;;;;;;5.30;3.33;;;14.90;64.90;16.80;101863.00;;;;5060939;28;20196;-79
2023/10/17 09:36:17;;;;;;;9.23;4.18;;;15.00;64.90;16.90;101869.00;;;;5053191;28;20206;-79
2023/10/17 09:38:45;;;;;;;4.70;3.35;;;15.10;64.80;17.00;101861.00;;;;5063022;28;20237;-80
2023/10/17 09:41:17;;;;;;;7.15;3.63;;;15.20;64.70;17.10;101881.00;;;;5063020;28;20219;-79
2023/10/17 09:43:45;;;;;;;4.85;3.85;;;15.30;64.50;17.20;101857.00;;;;5057713;28;20211;-78
2023/10/17 09:46:13;;;;;;;6.22;3.88;;;15.40;64.10;17.30;101862.00;;;;5054026;28;20290;-79
2023/10/17 09:48:42;;;;;;;6.53;3.72;;;15.50;64.10;17.30;101871.00;;;;5050009;28;20209;-79
2023/10/17 09:51:20;;;;;;;8.65;4.57;;;15.50;64.00;17.40;101881.00;;;;5049897;28;20231;-78
2023/10/17 09:53:53;;;;;;;6.80;4.13;;;15.60;63.70;17.50;101871.00;;;;5047202;28;20891;-79
2023/10/17 09:56:28;;;;;;;7.35;3.88;;;15.70;63.30;17.50;101874.00;;;;5049985;28;20245;-79
2023/10/17 09:59:02;;;;;;;5.25;4.32;;;15.80;63.20;17.50;101870.00;;;;5062310;28;20214;-79
2023/10/17 10:01:32;;;;;;;5.32;3.60;;;15.90;63.10;17.60;101864.00;;;;5051326;28;20195;-78
2023/10/17 10:04:02;;;;;;;5.82;4.03;;;15.90;63.00;17.70;101865.00;;;;5056093;28;20264;-78
2023/10/17 10:06:32;;;;;;;7.07;4.45;;;16.00;62.70;17.70;101870.00;;;;5046489;28;20249;-78
2023/10/17 10:09:27;;;;;;;4.82;3.95;;;16.00;62.60;17.60;101872.00;;;;5045423;28;20580;-78
2023/10/17 10:12:01;;;;;;;6.28;4.03;;;16.10;62.10;17.80;101858.00;;;;5045117;28;20223;-78
2023/10/17 10:14:42;;;;;;;4.55;3.35;;;16.10;62.40;17.80;101857.00;;;;5050403;28;20203;-78
2023/10/17 10:17:11;;;;;;;5.68;4.00;;;16.20;62.20;17.90;101856.00;;;;5057712;28;20712;-78
2023/10/17 10:20:13;;;;;;;4.10;3.42;;;16.20;62.40;17.90;101861.00;;;;5053497;28;20199;-78
2023/10/17 10:22:52;;;;;;;7.72;4.20;;;16.30;62.00;18.00;101854.00;;;;5010621;28;20196;-78
2023/10/17 10:25:20;;;;;;;7.82;4.15;;;16.40;61.90;18.10;101842.00;;;;5001709;28;20201;-78
2023/10/17 10:27:50;;;;;;;7.13;4.55;;;16.40;61.80;18.10;101845.00;;;;5036734;28;20305;-79
2023/10/17 10:30:36;;;;;;;6.25;3.70;;;16.50;62.30;18.10;101841.00;;;;5037205;28;20208;-78
2023/10/17 10:33:04;;;;;;;5.97;3.92;;;16.50;61.20;18.20;101837.00;;;;5030345;28;20204;-79
2023/10/17 10:35:33;;;;;;;5.25;3.80;;;16.60;61.60;18.20;101844.00;;;;5042939;28;20589;-79
2023/10/17 10:38:01;;;;;;;7.65;4.15;;;16.60;61.40;18.20;101827.00;;;;5043193;28;20224;-79
2023/10/17 10:40:32;;;;;;;5.25;3.65;;;16.60;61.00;18.30;101826.00;;;;5048228;28;20219;-79
2023/10/17 10:43:04;;;;;;;3.95;3.40;;;16.70;61.20;18.40;101822.00;;;;5048071;28;20794;-79
2023/10/17 10:45:36;;;;;;;9.85;3.70;;;16.70;61.20;18.40;101823.00;;;;5031440;28;20280;-79
2023/10/17 10:48:14;;;;;;;4.75;3.17;;;16.80;61.00;18.50;101818.00;;;;5037063;28;20700;-79
2023/10/17 10:50:43;;;;;;;7.68;3.08;;;16.80;60.90;18.50;101809.00;;;;5043982;28;20227;-79
2023/10/17 10:53:29;;;;;;;4.65;3.05;;;16.90;60.70;18.50;101806.00;;;;5048274;28;20539;-78
2023/10/17 10:55:59;;;;;;;2.72;2.50;;;17.00;59.80;18.60;101812.00;;;;5034033;28;20200;-80
2023/10/17 10:58:28;;;;;;;4.03;2.47;;;17.00;60.20;18.60;101806.00;;;;5030938;28;20787;-79
2023/10/17 11:00:59;;;;;;;3.78;2.63;;;17.00;59.90;18.70;101808.00;;;;5033177;28;20192;-78
2023/10/17 11:03:27;;;;;;;3.80;2.38;;;17.00;59.90;18.70;101790.00;;;;5032200;28;20196;-80
2023/10/17 11:05:58;;;;;;;3.70;2.10;;;17.10;59.90;18.70;101779.00;;;;5031167;28;20192;-79
2023/10/17 11:08:35;;;;;;;3.17;2.10;;;17.20;59.90;18.80;101783.00;;;;5030440;28;20211;-79
2023/10/17 11:11:03;;;;;;;4.15;2.25;;;17.20;60.10;18.90;101781.00;;;;5047909;28;20213;-79
2023/10/17 11:13:35;;;;;;;6.85;2.63;;;17.20;60.10;18.90;101781.00;;;;5043476;28;20696;-79
2023/10/17 11:16:06;;;;;;;3.20;2.15;;;17.30;59.90;19.00;101780.00;;;;5039791;28;20675;-78
2023/10/17 11:18:34;;;;;;;3.15;2.20;;;17.40;59.90;19.10;101790.00;;;;5047457;28;20698;-79
2023/10/17 11:21:02;;;;;;;4.47;2.00;;;17.50;59.80;19.20;101782.00;;;;5045015;28;20198;-79
2023/10/17 11:23:32;;;;;;;5.90;2.30;;;17.60;59.70;19.30;101781.00;;;;5047886;28;20192;-79
2023/10/17 11:26:01;;;;;;;3.67;1.92;;;17.70;59.70;19.40;101787.00;;;;5037215;28;20295;-78
2023/10/17 11:28:28;;;;;;;4.38;1.90;;;17.70;59.60;19.40;101775.00;;;;5029381;28;20208;-79
2023/10/17 11:30:58;;;;;;;2.65;1.77;;;17.80;59.40;19.50;101775.00;;;;5034785;28;20199;-79
2023/10/17 11:33:37;;;;;;;3.30;1.70;;;17.90;59.10;19.50;101772.00;;;;5042477;28;20237;-79
2023/10/17 11:36:12;;;;;;;5.70;1.80;;;17.90;58.40;19.60;101776.00;;;;5041002;28;20204;-78
2023/10/17 11:38:43;;;;;;;5.22;2.22;;;18.00;58.80;19.60;101776.00;;;;5042595;28;20222;-79
2023/10/17 11:41:10;;;;;;;3.30;1.88;;;18.10;58.40;19.70;101761.00;;;;5047691;28;20212;-79
2023/10/17 11:43:42;;;;;;;1.83;1.27;;;18.10;58.40;19.70;101770.00;;;;5045279;28;20657;-79
2023/10/17 11:46:13;;;;;;;2.40;1.75;;;18.20;58.30;19.80;101774.00;;;;5037417;28;20547;-79
2023/10/17 11:48:44;;;;;;;1.92;1.27;;;18.20;58.20;19.80;101768.00;;;;5036662;28;20207;-79
2023/10/17 11:51:16;;;;;;;4.45;1.33;;;18.30;58.00;19.80;101759.00;;;;5028437;28;20200;-78
2023/10/17 11:54:08;;;;;;;3.40;1.60;;;18.30;57.60;19.70;101773.00;;;;5037649;28;20199;-79
2023/10/17 11:56:38;;;;;;;4.90;1.77;;;18.30;56.70;19.80;101767.00;;;;5021454;28;20196;-79
2023/10/17 11:59:10;;;;;;;3.83;1.52;;;18.30;57.60;19.80;101767.00;;;;5029288;28;20232;-79
2023/10/17 12:01:38;;;;;;;2.63;1.40;;;18.30;57.40;19.80;101763.00;;;;5042134;28;20681;-79
2023/10/17 12:04:06;;;;;;;1.60;1.30;;;18.40;57.50;19.90;101755.00;;;;5047741;28;20206;-78
2023/10/17 12:06:34;;;;;;;1.70;1.33;;;18.40;57.50;19.90;101750.00;;;;5043994;28;20196;-80
2023/10/17 12:09:17;;;;;;;1.70;1.23;;;18.40;57.30;19.90;101756.00;;;;5046364;28;20210;-79
2023/10/17 12:11:47;;;;;;;2.15;1.27;;;18.50;57.20;19.90;101750.00;;;;5040600;28;20665;-79
2023/10/17 12:14:19;;;;;;;3.60;1.30;;;18.50;56.90;20.00;101739.00;;;;5031361;28;20255;-79
2023/10/17 12:16:48;;;;;;;2.53;0.95;;;18.50;56.70;20.00;101736.00;;;;5028195;28;20702;-79
2023/10/17 12:19:17;;;;;;;3.22;1.27;;;18.50;57.00;20.10;101731.00;;;;5046214;28;20629;-79
2023/10/17 12:21:47;;;;;;;1.42;1.05;;;18.60;56.90;20.10;101728.00;;;;5036108;28;20250;-79
2023/10/17 12:24:19;;;;;;;2.10;1.20;;;18.70;56.90;20.10;101725.00;;;;5030373;28;20765;-79
2023/10/17 12:26:49;;;;;;;1.27;0.90;;;18.70;56.80;20.20;101720.00;;;;5035199;28;20724;-79
2023/10/17 12:29:16;;;;;;;2.00;1.35;;;18.70;56.60;20.20;101719.00;;;;5046040;28;20196;-80
2023/10/17 12:31:43;;;;;;;2.67;1.52;;;18.80;56.60;20.20;101700.00;;;;5037756;28;20200;-80
2023/10/17 12:34:11;;;;;;;2.42;1.38;;;18.90;56.50;20.30;101699.00;;;;5030827;28;20206;-79
2023/10/17 12:36:38;;;;;;;3.60;1.50;;;18.90;56.50;20.30;101695.00;;;;5047446;28;20884;-79
2023/10/17 12:39:07;;;;;;;2.05;1.33;;;19.00;56.70;20.40;101700.00;;;;5032946;28;20238;-79
2023/10/17 12:41:37;;;;;;;1.63;1.50;;;19.00;56.10;20.40;101694.00;;;;5039615;28;20323;-79
2023/10/17 12:44:06;;;;;;;2.03;1.10;;;19.10;56.00;20.40;101686.00;;;;5029569;28;20589;-79